首页
METAR-TAF:

METAR-TAF

机场 :

巴塞尔-米卢斯-弗赖堡欧洲机场

巴塞尔-米卢斯-弗赖堡欧洲机场, 法国

纬度: 47-36N, 经度: 007-31E, 海拔: 270米

当前天气观测

该预报发布于31分钟前的22:30 UTC
风速2节,风向南转西南
温度 8°C
湿度 66%
气压 1025 hPa
能见度10公里或以上
1500米以下无云,无积雨云

METAR: LFSB 072230Z AUTO 21002KT CAVOK 08/02 Q1025 NOSIG

时间: 01:01 (23:01 UTC)

预报

该预报发布于6小时和1分钟前的17:00 UTC
预报有效从07日的 18点(UTC)到 08日的 18点(UTC)
风速7节,风向
能见度10公里或以上
1500米以下无云,无积雨云
成为
从 07日的 18点(UTC)到 07日的 20点(UTC)
风速3节,风向多变
短暂存在
从 08日的 12点(UTC)到 08日的 18点(UTC)
风速5节,风向

TAF: LFSB 071700Z 0718/0818 08007KT CAVOK BECMG 0718/0720 VRB03KT TEMPO 0812/0818 35005KT

超过4000个机场的气象观测和天气预报(METAR&TAF报告)。

可查询的气象台以黄色和红色小点在地图上表示。

将鼠标移到小点上方,可查看气象台名称。

然后点击查看天气观测和预报。

如需切换地图:点击带黑十字的绿色按钮放大地图;点击带横线的绿色按钮缩小地图;或者点击绿色箭头查看邻近地区的地图。


METAR-TAF: